Lakeview, OR (97630)

4:15 PM PST on December 25, 2014 (GMT -0800)
Agrisea's Weather Station - Northside | Change Station
CLOSE
Current Station
Personal Weather Station
Location: Lakeview, OR
Elevation: 4800 ft
Nearby Weather Stations

Elev 4800 ft 42.20 °N, 120.35 °W | Updated 20 seconds ago

Mostly Cloudy
Mostly Cloudy
32.5 °F
Feels Like 32 °F
N
0.0
Wind Variable Wind from NW
Gusts 8.1 mph

Today
High -- | Low -- °F
--% Chance of Precip.
Yesterday
High -- | Low -- °F
Precip. -- in
7:28 AM 4:34 PM
Waxing Crescent, 20% visible
Pressure 30.06 in
Visibility 10.0 miles
Clouds Mostly Cloudy 5500 ft
Windchill 32 °F
Dew Point 16 °F
Humidity 51%
Rainfall 0.16 in
Snow Depth Not available.
UV 0 out of 12
Pollen .30 out of 12
Air Quality Not available.
Flu Activity Not available.
METAR KLKV 252355Z 34008KT 10SM BKN055 00/M06 A3006 RMK AO1 10020 21010 400201050 52003

More Conditions Fewer Conditions

Pressure 30.06 in
Visibility 10.0 miles
Clouds Mostly Cloudy 5500 ft
Windchill 32 °F
Dew Point 16 °F
Humidity 51%
Rainfall 0.16 in
Snow Depth Not available.
UV 0 out of 12
Pollen .30 out of 12
Air Quality Not available.
Flu Activity Not available.
METAR KLKV 252355Z 34008KT 10SM BKN055 00/M06 A3006 RMK AO1 10020 21010 400201050 52003

More Conditions Fewer Conditions

10-Day Weather Forecast

Almanac

Astronomy

Dec. 25, 2014 Rise Set
Actual Time
Civil Twilight
Nautical Twilight
Astronomical Twilight
Moon
Length of Visible Light
Length of Day
Tomorrow will be .
, % of the Moon is Illuminated

Today's Extremes

State Highs State Lows

Community

WunderPhotos

Upload Photos

1,780,473 photos uploaded!

WunderBlogs® & News

Nearby

Air Quality

  Air Quality AQ Index Pollutant
Not available.

Snow Depth

Station Depth Elevation

Earthquake Activity

City Distance Mag. Time & Date
Minimum magnitude displayed is 2.5.

Coastal Water Temperatures

Place Temperature

Nearby Weather Stations